Latest Weather Observations for Cape Leeuwin

IDW60801

Issued at 11:32 pm WST Saturday 6 February 2016 (issued every 30 minutes, with the page automatically refreshed every 10 minutes)

About weather observations | Map of weather stations | Latest weather observations for WA | Other Formats
Station Details ID: 009518 Name: CAPE LEEUWIN Lat: -34.37 Lon: 115.14 Height: 13.0 m
Data from the previous 72 hours. | See also: Recent months at Cape Leeuwin
Date/Time
WST
Temp
°C
App
Temp
°C
Dew
Point
Rel
Hum
%
Delta-T
°C
Wind Press
QNH
hPa
Press
MSL
hPa
Rain
since 9 am
mm
Dir
 
Spd
km/h
Gust
km/h
Spd
kts
Gust
kts
06/11:30pm 18.2 11.3 14.6 79 2.1 ESE 44 56 24 30 1019.2 1019.1 0.0
06/11:00pm 18.3 11.4 14.5 78 2.2 ESE 44 56 24 30 1019.3 1019.2 0.0
06/10:30pm 18.3 11.5 14.3 77 2.3 ESE 43 56 23 30 1019.5 1019.4 0.0
06/10:00pm 18.2 11.7 14.0 76 2.4 ESE 41 54 22 29 1019.7 1019.6 0.0
06/09:30pm 18.3 11.4 14.1 76 2.4 ESE 43 54 23 29 1019.8 1019.7 0.0
06/09:00pm 18.3 11.4 13.9 75 2.5 SE 43 56 23 30 1019.7 1019.6 0.0
06/08:30pm 18.3 11.4 14.1 76 2.4 SE 43 52 23 28 1019.5 1019.4 0.0
06/08:00pm 18.4 12.0 14.2 76 2.4 SE 41 50 22 27 1019.3 1019.2 0.0
06/07:30pm 18.3 11.8 14.1 76 2.4 SE 41 52 22 28 1019.1 1019.0 0.0
06/07:00pm 18.4 12.0 14.4 77 2.3 SE 41 50 22 27 1018.9 1018.8 0.0
06/06:30pm 18.8 12.5 14.5 76 2.5 SE 41 52 22 28 1018.7 1018.6 0.0
06/06:00pm 19.4 13.6 14.9 75 2.6 SE 39 50 21 27 1018.7 1018.6 0.0
06/05:30pm 19.6 14.1 14.6 73 2.9 SE 37 46 20 25 1018.5 1018.4 0.0
06/05:00pm 20.4 14.5 14.6 69 3.4 SE 39 46 21 25 1018.3 1018.2 0.0
06/04:30pm 20.4 14.3 14.2 67 3.6 SE 39 48 21 26 1018.4 1018.3 0.0
06/04:00pm 20.8 15.4 13.9 64 4.0 SE 35 46 19 25 1018.5 1018.4 0.0
06/03:30pm 21.0 15.1 13.5 62 4.3 SE 37 46 20 25 1018.6 1018.5 0.0
06/03:00pm 20.8 14.4 13.1 61 4.4 SSE 39 46 21 25 1018.7 1018.6 0.0
06/02:30pm 20.9 14.9 13.4 62 4.3 SSE 37 46 20 25 1018.8 1018.7 0.0
06/02:00pm 21.3 15.1 13.9 62 4.3 SSE 39 48 21 26 1018.9 1018.8 0.0
06/01:30pm 22.0 16.3 14.3 61 4.5 SSE 37 44 20 24 1018.9 1018.8 0.0
06/01:00pm 22.1 17.4 14.8 63 4.3 SE 33 41 18 22 1019.0 1018.9 0.0
06/12:30pm 21.5 16.6 14.3 63 4.2 SE 33 41 18 22 1019.0 1018.9 0.0
06/12:00pm 21.8 16.7 14.8 64 4.1 SE 35 43 19 23 1019.2 1019.1 0.0
06/11:30am 21.9 16.9 15.1 65 4.0 SE 35 46 19 25 1019.4 1019.3 0.0
06/11:00am 21.5 17.0 15.3 68 3.7 SE 33 41 18 22 1019.6 1019.5 0.0
06/10:30am 20.9 16.4 14.9 68 3.5 SSE 32 37 17 20 1019.8 1019.7 0.0
06/10:00am 20.3 15.6 14.4 69 3.4 SSE 32 39 17 21 1019.8 1019.7 0.0
06/09:30am 20.5 16.4 14.9 70 3.3 SE 30 35 16 19 1019.6 1019.5 0.0
06/09:00am 19.9 15.4 14.8 72 3.0 SSE 32 35 17 19 1019.4 1019.3 0.0
06/08:30am 19.8 15.7 14.8 73 2.9 SSE 30 35 16 19 1019.3 1019.2 0.0
06/08:00am 19.4 15.0 15.1 76 2.5 SSE 32 37 17 20 1019.1 1019.0 0.0
06/07:30am 18.8 14.6 15.6 82 1.9 SSE 32 39 17 21 1018.9 1018.8 0.0
06/07:00am 18.6 15.0 16.2 86 1.4 SSE 30 35 16 19 1018.8 1018.7 0.0
06/06:30am 18.6 14.9 16.1 85 1.5 SSE 30 37 16 20 1018.5 1018.4 0.0
06/06:00am 18.3 14.1 15.6 84 1.6 SSE 32 35 17 19 1018.3 1018.2 0.0
06/05:30am 18.3 14.4 15.6 84 1.6 SSE 30 35 16 19 1018.0 1017.9 0.0
06/05:00am 18.2 14.8 15.8 86 1.4 SSE 28 33 15 18 1017.7 1017.6 0.0
06/04:30am 18.1 14.7 15.9 87 1.3 SSE 28 33 15 18 1017.5 1017.4 0.0
06/04:00am 18.2 14.9 16.0 87 1.3 SE 28 33 15 18 1017.1 1017.0 0.0
06/03:30am 18.4 14.7 16.0 86 1.4 SE 30 35 16 19 1017.0 1016.9 0.0
06/03:00am 18.7 15.5 16.2 85 1.5 SE 28 35 15 19 1017.1 1017.0 0.0
06/02:30am 18.8 15.3 16.5 86 1.4 SE 30 35 16 19 1017.5 1017.4 0.0
06/02:00am 19.0 15.4 16.3 84 1.6 SSE 30 35 16 19 1017.7 1017.6 0.0
06/01:30am 19.3 15.9 15.9 81 2.0 SE 28 33 15 18 1017.9 1017.8 0.0
06/01:00am 19.4 16.0 15.9 80 2.1 SE 28 33 15 18 1018.0 1017.9 0.0
06/12:30am 19.2 16.5 15.6 79 2.1 SE 24 32 13 17 1017.9 1017.8 0.0
06/12:00am 19.1 15.7 15.9 82 1.9 SE 28 35 15 19 1018.0 1017.9 0.0
 
Date/Time
WST
Temp
°C
App
Temp
°C
Dew
Point
Rel
Hum
%
Delta-T
°C
Wind Press
QNH
hPa
Press
MSL
hPa
Rain
since 9 am
mm
Dir
 
Spd
km/h
Gust
km/h
Spd
kts
Gust
kts
05/11:30pm 19.2 15.4 15.8 81 2.0 SE 30 35 16 19 1018.0 1017.9 0.0
05/11:00pm 19.5 16.7 16.3 82 1.9 SE 26 32 14 17 1018.0 1017.9 0.0
05/10:30pm 19.2 15.9 16.0 82 1.9 SE 28 33 15 18 1017.9 1017.8 0.0
05/10:00pm 19.6 16.7 16.1 80 2.1 SE 26 33 14 18 1018.0 1017.9 0.0
05/09:30pm 19.4 16.2 16.4 83 1.8 SE 28 35 15 19 1017.8 1017.7 0.0
05/09:00pm 19.3 16.6 16.5 84 1.7 SE 26 33 14 18 1017.7 1017.6 0.0
05/08:30pm 19.5 16.4 16.5 83 1.8 SE 28 33 15 18 1017.4 1017.3 0.0
05/08:00pm 19.5 16.7 16.3 82 1.9 SSE 26 30 14 16 1017.2 1017.1 0.0
05/07:30pm 19.6 16.7 16.1 80 2.1 SSE 26 32 14 17 1016.8 1016.7 0.0
05/07:00pm 20.0 17.6 16.3 79 2.2 SSE 24 30 13 16 1016.6 1016.5 0.0
05/06:30pm 20.6 18.6 16.5 77 2.5 SSE 22 28 12 15 1016.4 1016.3 0.0
05/06:00pm 21.2 19.7 16.8 76 2.7 SSE 20 26 11 14 1016.1 1016.0 0.0
05/05:30pm 21.7 20.1 16.6 73 3.1 SSE 20 28 11 15 1015.9 1015.8 0.0
05/05:00pm 22.3 20.7 16.5 69 3.5 SE 20 26 11 14 1015.7 1015.6 0.0
05/04:30pm 22.7 21.2 16.8 69 3.6 SSE 20 24 11 13 1015.8 1015.7 0.0
05/04:00pm 22.7 21.9 17.0 70 3.5 SSE 17 22 9 12 1016.0 1015.9 0.0
05/03:30pm 22.8 22.6 17.5 72 3.3 SSE 15 20 8 11 1016.0 1015.9 0.0
05/03:00pm 22.9 22.4 17.7 72 3.2 SSE 17 20 9 11 1016.1 1016.0 0.0
05/02:30pm 23.6 23.1 17.8 70 3.6 SSE 17 20 9 11 1016.2 1016.1 0.0
05/02:00pm 24.0 23.9 17.9 68 3.8 SSE 15 22 8 12 1016.4 1016.3 0.0
05/01:30pm 24.5 24.2 18.3 68 3.9 S 17 20 9 11 1016.4 1016.3 0.0
05/01:00pm 23.4 23.9 18.3 73 3.2 SSE 13 19 7 10 1016.4 1016.3 0.0
05/12:30pm 23.5 24.0 18.4 73 3.2 SSE 13 17 7 9 1016.5 1016.4 0.0
05/12:00pm 23.3 23.9 18.5 74 3.0 SSE 13 15 7 8 1016.7 1016.6 0.0
05/11:30am 23.4 24.0 18.6 74 3.0 SSE 13 17 7 9 1016.6 1016.5 0.0
05/11:00am 23.4 23.9 18.3 73 3.2 S 13 17 7 9 1016.8 1016.7 0.0
05/10:30am 23.5 24.2 18.8 75 3.0 SW 13 17 7 9 1016.7 1016.6 0.0
05/10:00am 22.6 23.9 18.5 77 2.6 WSW 9 13 5 7 1016.4 1016.3 0.0
05/09:30am 22.2 22.7 18.4 79 2.4 W 13 17 7 9 1016.4 1016.3 0.0
05/09:00am 21.8 20.6 17.4 76 2.7 WNW 20 24 11 13 1016.2 1016.1 0.0
05/08:30am 21.5 20.5 16.6 73 3.0 NW 17 20 9 11 1015.8 1015.7 0.0
05/08:00am 21.3 21.3 17.2 77 2.5 NW 13 15 7 8 1015.7 1015.6 0.0
05/07:30am 21.4 21.5 16.6 74 2.9 W 11 13 6 7 1015.6 1015.5 0.0
05/07:00am 20.8 21.8 16.9 78 2.4 NW 7 11 4 6 1015.2 1015.1 0.0
05/06:30am 21.0 20.4 15.6 71 3.2 W 13 17 7 9 1015.1 1015.0 0.0
05/06:00am 21.3 20.3 12.4 57 5.0 W 9 13 5 7 1014.7 1014.6 0.0
05/05:30am 22.1 20.6 12.0 52 5.7 WNW 11 20 6 11 1014.3 1014.2 0.0
05/05:00am 21.4 20.4 12.4 56 5.1 WNW 9 13 5 7 1013.8 1013.7 0.0
05/04:30am 20.9 20.0 13.6 63 4.2 WNW 11 22 6 12 1013.8 1013.7 0.0
05/04:00am 20.2 20.4 14.2 68 3.5 E 6 13 3 7 1013.7 1013.6 0.0
05/03:30am 21.1 20.7 13.0 60 4.6 SSW 7 15 4 8 1013.8 1013.7 0.0
05/03:00am 19.8 18.1 14.8 73 2.9 E 17 20 9 11 1013.9 1013.8 0.0
05/02:30am 19.5 19.0 17.0 85 1.5 E 15 17 8 9 1014.3 1014.2 0.0
05/02:00am 19.5 19.8 16.9 85 1.6 E 11 15 6 8 1014.7 1014.6 0.0
05/01:30am 20.0 19.3 16.5 80 2.1 E 15 17 8 9 1015.0 1014.9 0.0
05/01:00am 20.3 19.0 15.8 75 2.7 E 17 20 9 11 1015.3 1015.2 0.0
05/12:30am 20.5 19.2 15.8 74 2.8 E 17 19 9 10 1015.6 1015.5 0.0
05/12:00am 20.5 19.9 15.6 73 2.9 ENE 13 15 7 8 1016.1 1016.0 0.0
 
Date/Time
WST
Temp
°C
App
Temp
°C
Dew
Point
Rel
Hum
%
Delta-T
°C
Wind Press
QNH
hPa
Press
MSL
hPa
Rain
since 9 am
mm
Dir
 
Spd
km/h
Gust
km/h
Spd
kts
Gust
kts
04/11:30pm 20.4 19.7 16.4 78 2.4 E 15 19 8 10 1016.4 1016.3 0.0
04/11:00pm 20.3 19.5 16.1 77 2.5 ESE 15 19 8 10 1016.6 1016.5 0.0
04/10:30pm 20.2 19.9 16.4 79 2.3 ESE 13 17 7 9 1016.8 1016.7 0.0
04/10:00pm 20.1 19.4 16.4 79 2.2 ESE 15 17 8 9 1017.1 1017.0 0.0
04/09:30pm 20.0 20.0 17.2 84 1.7 E 13 15 7 8 1017.3 1017.2 0.0
04/09:00pm 20.0 20.2 17.6 86 1.5 E 13 15 7 8 1017.4 1017.3 0.0
04/08:30pm 20.1 20.4 17.8 86 1.4 E 13 15 7 8 1017.4 1017.3 0.0
04/08:00pm 20.2 20.1 17.9 87 1.4 E 15 17 8 9 1017.3 1017.2 0.0
04/07:30pm 20.5 20.0 17.9 85 1.6 ESE 17 19 9 10 1017.4 1017.3 0.0
04/07:00pm 21.0 20.9 17.9 82 1.9 ESE 15 17 8 9 1017.3 1017.2 0.0
04/06:30pm 21.5 22.0 18.3 82 2.0 ESE 13 15 7 8 1017.4 1017.3 0.0
04/06:00pm 22.2 23.1 18.5 79 2.3 E 11 15 6 8 1017.4 1017.3 0.0
04/05:30pm 22.4 23.7 18.4 78 2.5 ESE 9 13 5 7 1017.4 1017.3 0.0
04/05:00pm 22.8 23.7 18.3 76 2.8 E 11 13 6 7 1017.4 1017.3 0.0
04/04:30pm 23.5 24.9 17.9 71 3.5 SE 7 13 4 7 1017.5 1017.4 0.0
04/04:00pm 23.7 24.6 17.6 68 3.8 SSE 9 13 5 7 1017.5 1017.4 0.0
04/03:30pm 23.2 23.8 16.7 67 4.0 SSW 9 13 5 7 1017.6 1017.5 0.0
04/03:00pm 23.0 23.3 17.1 69 3.6 SSW 11 13 6 7 1017.5 1017.4 0.0
04/02:30pm 23.1 23.7 16.9 68 3.8 SW 9 13 5 7 1017.6 1017.5 0.0
04/02:00pm 23.5 23.3 16.8 66 4.1 SSW 13 17 7 9 1017.7 1017.6 0.0
04/01:30pm 23.2 23.9 17.0 68 3.8 WSW 9 13 5 7 1017.9 1017.8 0.0
04/01:00pm 23.1 23.3 16.7 67 3.9 S 11 17 6 9 1018.1 1018.0 0.0
04/12:30pm 23.9 24.2 17.1 65 4.2 SE 11 15 6 8 1018.3 1018.2 0.0
04/12:00pm 24.7 24.5 17.5 64 4.5 SSE 15 19 8 10 1018.6 1018.5 0.0
04/11:30am 25.7 24.5 16.0 55 5.9 SSE 17 20 9 11 1018.8 1018.7 0.0
04/11:00am 25.7 25.1 13.6 47 7.1 SSE 9 22 5 12 1019.1 1019.0 0.0
04/10:30am 27.2 22.9 11.9 38 8.8 NE 26 35 14 19 1019.2 1019.1 0.0
04/10:00am 25.5 20.5 12.2 43 7.6 NE 30 35 16 19 1019.3 1019.2 0.0
04/09:30am 23.8 18.3 12.0 47 6.7 NE 32 43 17 23 1019.3 1019.2 0.0
04/09:00am 22.2 15.2 11.2 49 6.1 NE 39 46 21 25 1019.5 1019.4 0.0
04/08:30am 20.9 13.9 11.1 53 5.4 NNE 39 52 21 28 1019.7 1019.6 0.0
04/08:00am 19.5 11.9 10.6 56 4.8 NE 41 54 22 29 1019.8 1019.7 0.0
04/07:30am 18.6 11.4 10.6 59 4.3 NE 39 57 21 31 1019.8 1019.7 0.0
04/07:28am 18.5 11.3 10.7 60 4.2 NE 39 57 21 31 1019.9 1019.8 0.0
04/07:00am 17.6 10.8 10.5 63 3.8 NE 37 48 20 26 1019.7 1019.6 0.0
04/06:30am 17.0 10.6 10.8 67 3.3 NE 35 43 19 23 1019.7 1019.6 0.0
04/06:00am 16.5 9.5 11.1 70 2.9 NE 39 44 21 24 1019.7 1019.6 0.0
04/05:30am 16.3 10.3 12.1 76 2.3 ENE 35 43 19 23 1019.7 1019.6 0.0
04/05:00am 16.3 10.4 12.5 78 2.1 ENE 35 41 19 22 1019.5 1019.4 0.0
04/04:30am 16.7 10.5 12.5 76 2.3 ENE 37 41 20 22 1019.3 1019.2 0.0
04/04:00am 17.1 10.6 12.8 76 2.4 ENE 39 43 21 23 1019.1 1019.0 0.0
04/03:30am 18.0 11.5 12.8 71 2.9 ENE 39 44 21 24 1019.1 1019.0 0.0
04/03:00am 18.2 12.9 13.0 71 2.9 E 33 41 18 22 1019.4 1019.3 0.0
04/02:30am 18.1 12.9 12.7 70 3.0 E 32 35 17 19 1019.7 1019.6 0.0
04/02:00am 18.0 14.2 13.6 75 2.5 E 26 30 14 16 1020.1 1020.0 0.0
04/01:30am 18.0 13.3 14.3 79 2.1 E 32 35 17 19 1020.2 1020.1 0.0
04/01:00am 18.0 13.1 14.2 78 2.2 E 33 39 18 21 1020.1 1020.0 0.0
04/12:30am 18.1 13.2 14.3 78 2.2 ESE 33 39 18 21 1020.4 1020.3 0.0
04/12:00am 18.4 13.5 14.2 76 2.4 ESE 33 39 18 21 1020.7 1020.6 0.0

Other Formats:

Comma delimited format used in spreadsheet applications
http://www.bom.gov.au/fwo/IDW60801/IDW60801.94601.axf

JavaScript Object Notation format (JSON) in row-major order
http://www.bom.gov.au/fwo/IDW60801/IDW60801.94601.json